Time;durP1;ratioP1;P1;durP2;ratioP2;P2;SDS_P1;SDS_P2;PMS_P1;PMS_P2;Temp;Humidity;BMP_temperature;BMP_pressure;BME280_temperature;BME280_humidity;BME280_pressure;Samples;Min_cycle;Max_cycle;Signal;HPM_P1;HPM_P2
2022/01/12 00:04:52;;;;;;;248.07;83.97;;;;;;;-6.59;89.38;102800.73;4906635;59;1143185;-71
2022/01/12 00:09:58;;;;;;;292.23;97.93;;;;;;;-6.62;88.79;102804.09;4932694;58;1143443;-74
2022/01/12 00:15:04;;;;;;;323.37;104.80;;;;;;;-6.78;88.58;102810.89;4988791;58;1143452;-73
2022/01/12 00:20:11;;;;;;;256.27;87.80;;;;;;;-6.82;89.05;102812.49;4988712;58;1145192;-77
2022/01/12 00:35:52;;;;;;;296.70;93.07;;;;;;;-6.82;89.09;102826.64;4988945;58;1143495;-70
2022/01/12 00:40:58;;;;;;;343.93;105.75;;;;;;;-6.90;88.59;102824.27;4988801;58;1143169;-74
2022/01/12 00:46:05;;;;;;;416.35;123.62;;;;;;;-6.97;88.70;102833.89;4988426;58;1145282;-68
2022/01/12 00:51:11;;;;;;;454.07;147.27;;;;;;;-7.02;88.83;102822.98;4988571;58;1145265;-77
2022/01/12 00:56:18;;;;;;;372.00;113.83;;;;;;;-7.10;88.76;102823.64;4988709;58;1145384;-73
2022/01/12 01:01:25;;;;;;;332.57;99.17;;;;;;;-7.16;88.79;102814.84;4988492;58;1145308;-77
2022/01/12 01:06:35;;;;;;;260.83;87.23;;;;;;;-7.09;89.71;102816.80;4988553;58;1143178;-72
2022/01/12 01:11:41;;;;;;;217.80;78.07;;;;;;;-7.03;89.49;102810.98;4936236;59;1143187;-77
2022/01/12 01:17:04;;;;;;;185.20;68.00;;;;;;;-7.02;89.52;102807.14;4910350;60;1143175;-73
2022/01/12 01:27:21;;;;;;;167.37;63.27;;;;;;;-6.89;89.94;102803.28;4911060;60;1141248;-73
2022/01/12 01:32:27;;;;;;;185.13;69.97;;;;;;;-6.84;90.27;102806.42;4911372;60;1141177;-70
2022/01/12 01:37:34;;;;;;;310.67;95.87;;;;;;;-6.73;91.23;102805.48;4909445;60;1141139;-81
2022/01/12 01:43:41;;;;;;;199.77;70.65;;;;;;;-6.72;91.51;102794.33;4911059;59;1141201;-78
2022/01/12 01:53:21;;;;;;;210.80;76.77;;;;;;;-6.97;91.46;102803.03;4910940;60;1141263;-79
2022/01/12 01:58:25;;;;;;;178.43;63.77;;;;;;;-7.07;91.41;102800.14;4910954;60;1141178;-75
2022/01/12 02:03:31;;;;;;;233.63;82.25;;;;;;;-7.06;91.80;102808.31;4910827;59;1141099;-74
2022/01/12 02:08:40;;;;;;;325.07;113.53;;;;;;;-6.95;92.77;102807.81;4891529;59;1139120;-72
2022/01/12 02:14:07;;;;;;;246.93;83.78;;;;;;;-6.89;92.44;102801.58;4978984;59;1145241;-73
2022/01/12 02:19:29;;;;;;;194.93;69.47;;;;;;;-6.98;91.42;102800.41;4953888;59;1143146;-71
2022/01/12 02:40:40;;;;;;;190.70;65.90;;;;;;;-7.33;90.81;102773.17;4912011;59;1143221;-77
2022/01/12 02:56:31;;;;;;;171.28;60.40;;;;;;;-7.41;91.49;102781.48;4985279;59;1143267;-74
2022/01/12 03:06:50;;;;;;;130.10;50.10;;;;;;;-7.37;91.19;102784.62;4987502;59;1143232;-75
2022/01/12 03:11:56;;;;;;;160.07;58.23;;;;;;;-7.33;91.45;102783.91;5041232;57;1143204;-77
2022/01/12 03:17:02;;;;;;;184.47;63.03;;;;;;;-7.32;91.32;102789.06;5108343;57;1143221;-80
2022/01/12 03:22:09;;;;;;;192.47;65.07;;;;;;;-7.38;90.80;102773.88;5145165;57;1143179;-74
2022/01/12 03:27:16;;;;;;;188.80;65.47;;;;;;;-7.46;91.63;102772.33;5145028;57;1143447;-70
2022/01/12 03:32:33;;;;;;;198.00;66.70;;;;;;;-7.46;91.63;102772.33;5145430;57;1143172;-76
2022/01/12 03:37:52;;;;;;;228.67;78.77;;;;;;;-7.47;91.04;102785.59;5137647;57;1141157;-77
2022/01/12 03:42:49;;;;;;;231.20;76.77;;;;;;;-7.56;90.93;102782.73;5142736;57;1141203;-75
2022/01/12 03:47:55;;;;;;;242.73;79.97;;;;;;;-7.53;91.47;102778.99;5145577;57;1141303;-78
2022/01/12 03:53:00;;;;;;;225.23;70.50;;;;;;;-7.53;91.20;102761.41;5137525;57;1141151;-80
2022/01/12 03:58:06;;;;;;;196.23;70.60;;;;;;;-7.55;91.40;102779.34;5136199;57;1141118;-75
2022/01/12 04:03:15;;;;;;;188.20;70.93;;;;;;;-7.56;91.32;102784.44;5136064;57;1141097;-82
2022/01/12 04:08:23;;;;;;;214.40;74.57;;;;;;;-7.58;91.26;102777.95;5145605;57;1141197;-82
2022/01/12 04:13:32;;;;;;;219.50;75.93;;;;;;;-7.64;91.25;102776.49;5041638;58;1140937;-79
2022/01/12 04:18:39;;;;;;;255.20;83.93;;;;;;;-7.68;91.64;102766.93;5039345;58;1141206;-77
2022/01/12 04:23:45;;;;;;;216.10;77.43;;;;;;;-7.71;91.79;102762.09;5023571;58;1141193;-74
2022/01/12 04:28:52;;;;;;;218.77;78.67;;;;;;;-7.71;92.16;102755.67;5023573;58;1141339;-77
2022/01/12 04:33:58;;;;;;;213.73;76.17;;;;;;;-7.67;92.39;102767.39;5008391;58;1141465;-82
2022/01/12 04:39:05;;;;;;;202.70;74.97;;;;;;;-7.62;92.56;102772.66;5003252;58;1141139;-72
2022/01/12 04:44:12;;;;;;;218.83;76.40;;;;;;;-7.55;92.87;102777.19;5000903;58;1139025;-74
2022/01/12 04:49:46;;;;;;;235.07;76.47;;;;;;;-7.43;93.23;102771.16;4987125;58;1139512;-76
2022/01/12 04:54:28;;;;;;;296.52;101.90;;;;;;;-7.28;93.69;102770.77;5000673;58;1143389;-75
2022/01/12 04:59:40;;;;;;;374.30;108.47;;;;;;;-7.06;94.31;102764.59;5018306;58;1145255;-72
2022/01/12 05:15:21;;;;;;;223.17;76.17;;;;;;;-7.11;92.95;102753.75;4961071;58;1142571;-80
2022/01/12 05:20:23;;;;;;;296.23;99.23;;;;;;;-7.06;93.75;102752.61;4908366;58;1143207;-75
2022/01/12 05:25:30;;;;;;;245.67;84.33;;;;;;;-6.98;94.09;102758.84;4901741;60;1143334;-71
2022/01/12 05:30:37;;;;;;;228.07;80.77;;;;;;;-6.87;94.41;102775.87;4886973;59;1143263;-82
2022/01/12 05:35:44;;;;;;;443.13;134.93;;;;;;;-6.81;94.68;102758.93;4982233;59;1143263;-74
2022/01/12 05:40:55;;;;;;;579.60;228.50;;;;;;;-6.68;95.27;102760.16;4984422;59;1145315;-77
2022/01/12 05:46:12;;;;;;;559.47;193.77;;;;;;;-6.64;95.07;102759.42;4989187;59;1145309;-73
2022/01/12 05:51:19;;;;;;;463.07;148.60;;;;;;;-6.49;95.73;102761.14;4970855;59;1145255;-76
2022/01/12 05:56:25;;;;;;;444.87;136.70;;;;;;;-6.40;95.91;102769.52;4911922;60;1145553;-76
2022/01/12 06:01:31;;;;;;;237.70;82.67;;;;;;;-6.30;96.08;102780.96;4918746;59;1145709;-77
2022/01/12 06:06:38;;;;;;;236.00;81.50;;;;;;;-6.25;96.03;102775.50;4912021;60;1143203;-77
2022/01/12 06:11:43;;;;;;;598.63;167.93;;;;;;;-6.44;95.59;102770.28;4964737;59;1143128;-74
2022/01/12 06:16:50;;;;;;;399.77;131.47;;;;;;;-6.35;96.20;102788.97;4984218;59;1145326;-79
2022/01/12 06:21:57;;;;;;;245.90;93.07;;;;;;;-6.37;96.20;102791.91;4911696;60;1145460;-81
2022/01/12 06:27:05;;;;;;;282.53;92.67;;;;;;;-6.34;96.40;102787.72;4936953;59;1143492;-81
2022/01/12 06:32:11;;;;;;;506.67;153.60;;;;;;;-6.28;96.81;102776.31;4990427;59;1143164;-73
2022/01/12 06:37:17;;;;;;;244.43;87.63;;;;;;;-6.25;96.99;102772.92;4982743;59;1145330;-78
2022/01/12 06:42:23;;;;;;;270.33;91.87;;;;;;;-6.31;96.96;102765.93;4948732;59;1143616;-72
2022/01/12 06:47:29;;;;;;;246.67;87.57;;;;;;;-6.27;97.39;102766.48;4962042;59;1143203;-78
2022/01/12 06:52:35;;;;;;;266.67;91.50;;;;;;;-6.20;97.67;102759.77;4990481;59;1143369;-85
2022/01/12 06:57:42;;;;;;;347.70;112.50;;;;;;;-6.14;98.03;102756.08;4979765;59;1143493;-77
2022/01/12 07:02:48;;;;;;;271.77;95.57;;;;;;;-6.06;98.35;102754.56;4986207;59;1145759;-74
2022/01/12 07:07:54;;;;;;;275.77;91.70;;;;;;;-5.95;98.58;102753.55;4981879;59;1143242;-75
2022/01/12 07:13:02;;;;;;;267.97;98.13;;;;;;;-5.92;98.49;102754.92;4908023;59;1143528;-77
2022/01/12 07:18:08;;;;;;;258.03;91.83;;;;;;;-5.94;98.69;102757.45;4919070;59;1143148;-84
2022/01/12 07:23:14;;;;;;;228.10;82.97;;;;;;;-5.93;99.01;102763.48;5001327;59;1141087;-72
2022/01/12 07:28:21;;;;;;;203.87;71.37;;;;;;;-6.04;99.60;102764.08;4998751;59;1141060;-72
2022/01/12 07:33:28;;;;;;;223.10;77.93;;;;;;;-6.10;100.00;102774.63;5004714;59;1141221;-82
2022/01/12 07:38:35;;;;;;;198.20;68.45;;;;;;;-6.15;100.00;102776.23;5004716;59;1143152;-82
2022/01/12 07:43:40;;;;;;;197.27;70.87;;;;;;;-6.17;100.00;102777.47;5004882;59;1143542;-75
2022/01/12 07:48:47;;;;;;;210.40;75.03;;;;;;;-6.19;100.00;102768.83;4998144;59;1143185;-84
2022/01/12 07:53:52;;;;;;;361.87;154.33;;;;;;;-6.11;100.00;102757.45;5004872;59;1143153;-81
2022/01/12 07:58:58;;;;;;;406.73;161.60;;;;;;;-6.07;100.00;102757.56;5002137;59;1145289;-76
2022/01/12 08:04:04;;;;;;;360.63;131.07;;;;;;;-6.05;100.00;102743.02;4993998;58;1145315;-79
2022/01/12 08:09:11;;;;;;;436.30;115.77;;;;;;;-5.98;100.00;102759.94;5017932;58;1145323;-78
2022/01/12 08:14:16;;;;;;;247.67;79.10;;;;;;;-5.90;100.00;102759.70;5086066;58;1145141;-78
2022/01/12 08:19:23;;;;;;;346.90;121.77;;;;;;;-5.84;100.00;102769.73;5073235;58;1143606;-84
2022/01/12 08:24:29;;;;;;;301.07;93.80;;;;;;;-5.80;100.00;102757.36;4970830;58;1145614;-76
2022/01/12 08:29:34;;;;;;;245.90;87.37;;;;;;;-5.68;100.00;102753.81;4958309;58;1143251;-79
2022/01/12 08:34:40;;;;;;;251.67;87.57;;;;;;;-5.64;100.00;102753.45;4958841;58;1143251;-77
2022/01/12 08:39:46;;;;;;;216.10;70.60;;;;;;;-5.57;100.00;102746.34;4958668;58;1143377;-77
2022/01/12 08:44:52;;;;;;;201.52;72.70;;;;;;;-5.54;100.00;102737.81;4960288;58;1143475;-78
2022/01/12 08:49:58;;;;;;;145.60;47.43;;;;;;;-5.50;100.00;102736.61;4959729;58;1143428;-76
2022/01/12 08:55:06;;;;;;;204.93;69.87;;;;;;;-5.37;100.00;102737.80;4959860;58;1141325;-80
2022/01/12 09:00:13;;;;;;;151.30;48.87;;;;;;;-5.22;100.00;102741.14;4988146;59;21159;-78
2022/01/12 09:05:19;;;;;;;224.88;80.62;;;;;;;-5.13;100.00;102730.59;4969173;58;1141094;-75
2022/01/12 09:10:25;;;;;;;219.30;76.20;;;;;;;-5.04;100.00;102752.72;5023976;58;1145358;-78
2022/01/12 09:15:31;;;;;;;199.50;72.63;;;;;;;-4.91;100.00;102759.45;5102695;57;1145338;-79
2022/01/12 09:20:37;;;;;;;197.87;70.13;;;;;;;-4.82;100.00;102760.52;5104423;57;1145315;-73
2022/01/12 09:25:42;;;;;;;172.62;62.25;;;;;;;-4.75;100.00;102754.66;5124879;57;1145699;-75
2022/01/12 09:30:48;;;;;;;139.43;48.83;;;;;;;-4.64;100.00;102749.70;5124694;57;1145245;-79
2022/01/12 09:35:54;;;;;;;176.57;68.07;;;;;;;-4.57;100.00;102730.02;5124015;57;1145323;-82
2022/01/12 09:41:02;;;;;;;212.17;86.83;;;;;;;-4.50;100.00;102737.94;5124521;57;1145348;-73
2022/01/12 09:46:11;;;;;;;130.17;53.53;;;;;;;-4.43;100.00;102744.95;5124629;57;1145374;-71
2022/01/12 09:51:17;;;;;;;164.10;63.05;;;;;;;-4.35;100.00;102738.66;5129759;57;1145322;-80
2022/01/12 09:56:28;;;;;;;176.80;67.80;;;;;;;-4.25;100.00;102734.97;5052346;57;1145400;-81
2022/01/12 10:01:48;;;;;;;153.17;51.60;;;;;;;-4.16;100.00;102725.67;5044389;58;1145312;-73
2022/01/12 10:06:57;;;;;;;153.80;56.50;;;;;;;-4.07;100.00;102721.52;5018375;58;1145282;-81
2022/01/12 10:12:08;;;;;;;;;;;;;;;-3.95;100.00;102704.06;5112473;57;1145698;-78
2022/01/12 10:17:16;;;;;;;164.67;58.23;;;;;;;-3.82;100.00;102698.70;5138159;57;976315;-73
2022/01/12 10:22:22;;;;;;;160.67;58.67;;;;;;;-3.73;100.00;102692.37;5130386;57;1143229;-79
2022/01/12 10:27:28;;;;;;;91.60;30.70;;;;;;;-3.66;100.00;102693.77;5121426;57;1145287;-76
2022/01/12 10:32:33;;;;;;;139.90;50.27;;;;;;;-3.57;100.00;102684.88;5114436;57;1143183;-78
2022/01/12 10:37:39;;;;;;;108.20;39.03;;;;;;;-3.51;100.00;102678.06;4993951;57;1145590;-79
2022/01/12 10:42:45;;;;;;;136.10;52.70;;;;;;;-3.44;100.00;102679.45;4985495;58;1145326;-74
2022/01/12 10:48:10;;;;;;;151.95;54.10;;;;;;;-3.40;100.00;102675.20;4985362;59;1145367;-79
2022/01/12 10:53:28;;;;;;;121.10;45.25;;;;;;;-3.37;100.00;102667.48;4963238;59;1145406;-78
2022/01/12 10:58:38;;;;;;;94.30;31.13;;;;;;;-3.35;100.00;102656.28;4942762;59;1145600;-71
2022/01/12 11:03:44;;;;;;;150.03;57.73;;;;;;;-3.32;100.00;102645.11;4948379;58;1143217;-74
2022/01/12 11:08:50;;;;;;;149.27;55.87;;;;;;;-3.29;100.00;102638.69;4949908;58;1145363;-77
2022/01/12 11:13:57;;;;;;;153.93;56.45;;;;;;;-3.21;100.00;102619.81;4962612;58;1145388;-82
2022/01/12 11:19:03;;;;;;;134.50;50.73;;;;;;;-3.12;100.00;102609.15;4970619;58;1143355;-76
2022/01/12 11:24:14;;;;;;;115.57;47.45;;;;;;;-3.03;100.00;102606.66;4990277;58;1143145;-75
2022/01/12 11:29:36;;;;;;;130.20;45.40;;;;;;;-2.89;100.00;102608.98;5007657;58;1143225;-72
2022/01/12 11:34:42;;;;;;;97.10;34.77;;;;;;;-2.79;100.00;102595.72;5009865;58;1143218;-83
2022/01/12 11:39:48;;;;;;;146.83;63.83;;;;;;;-2.65;100.00;102594.14;4997629;58;1141146;-71
2022/01/12 11:44:54;;;;;;;119.70;45.30;;;;;;;-2.50;100.00;102600.34;5008079;58;1143323;-74
2022/01/12 11:50:00;;;;;;;145.40;56.83;;;;;;;-2.41;100.00;102599.97;5010059;58;1143178;-71
2022/01/12 11:55:16;;;;;;;124.90;43.40;;;;;;;-2.43;100.00;102599.95;5010973;58;1143153;-74
2022/01/12 12:00:29;;;;;;;132.50;53.73;;;;;;;-2.39;100.00;102600.42;5012054;58;1143071;-75
2022/01/12 12:05:34;;;;;;;99.30;35.90;;;;;;;-2.31;100.00;102596.20;5013013;58;1143355;-70
2022/01/12 12:10:42;;;;;;;131.53;49.53;;;;;;;-2.27;100.00;102608.73;5014004;57;1141160;-72
2022/01/12 12:15:48;;;;;;;134.97;49.10;;;;;;;-2.24;100.00;102603.58;5004912;58;1141099;-70
2022/01/12 12:20:54;;;;;;;110.40;44.80;;;;;;;-2.25;100.00;102605.30;4995333;58;1144985;-72
2022/01/12 12:26:04;;;;;;;109.00;41.73;;;;;;;-2.22;100.00;102606.63;4980927;59;1145278;-70
2022/01/12 12:31:10;;;;;;;109.83;41.57;;;;;;;-2.15;100.00;102604.54;4961878;59;1145397;-73
2022/01/12 12:36:16;;;;;;;141.57;49.20;;;;;;;-2.12;100.00;102603.67;4942372;59;1145383;-72
2022/01/12 12:41:22;;;;;;;99.37;39.53;;;;;;;-2.09;100.00;102583.39;4939555;59;1145296;-75
2022/01/12 12:46:28;;;;;;;94.93;36.50;;;;;;;-2.00;100.00;102587.36;4921315;60;1143604;-68
2022/01/12 12:51:34;;;;;;;108.87;43.30;;;;;;;-1.98;100.00;102576.55;4921038;60;1143493;-74
2022/01/12 12:56:42;;;;;;;108.60;43.13;;;;;;;-1.97;100.00;102578.28;4920993;60;1145301;-77
2022/01/12 13:01:47;;;;;;;117.73;50.70;;;;;;;-1.96;100.00;102575.70;4920852;60;1145502;-68
2022/01/12 13:06:54;;;;;;;123.13;48.87;;;;;;;-1.95;100.00;102564.48;4921356;60;1145275;-77
2022/01/12 13:12:00;;;;;;;125.23;54.27;;;;;;;-1.95;100.00;102570.09;4962048;59;1145357;-70
2022/01/12 13:17:05;;;;;;;100.33;31.67;;;;;;;-1.94;100.00;102567.52;4962940;58;1145457;-74
2022/01/12 13:22:12;;;;;;;149.27;60.97;;;;;;;-1.93;100.00;102565.79;4947504;59;1145235;-78
2022/01/12 13:27:19;;;;;;;190.37;78.33;;;;;;;-1.95;100.00;102563.19;4940765;58;1145436;-76
2022/01/12 13:32:26;;;;;;;118.77;48.97;;;;;;;-1.93;100.00;102567.95;4962165;58;1145322;-87
2022/01/12 13:37:32;;;;;;;179.07;69.00;;;;;;;-1.93;100.00;102540.73;5001628;58;1145522;-75
2022/01/12 13:42:54;;;;;;;172.87;65.47;;;;;;;-1.91;100.00;102557.17;5026009;58;1145248;-72
2022/01/12 13:48:00;;;;;;;260.53;92.37;;;;;;;-1.92;100.00;102551.97;5042189;58;1145292;-73
2022/01/12 13:53:07;;;;;;;181.70;71.87;;;;;;;-1.92;100.00;102556.73;5042186;58;1145257;-72
2022/01/12 13:58:13;;;;;;;162.10;59.60;;;;;;;-1.91;100.00;102561.06;5036389;58;1145259;-68
2022/01/12 14:03:23;;;;;;;181.73;70.13;;;;;;;-1.89;100.00;102563.66;5042116;58;1145210;-71
2022/01/12 14:08:41;;;;;;;152.80;57.60;;;;;;;-1.95;100.00;102589.11;5013824;57;1145351;-67
2022/01/12 14:13:40;;;;;;;886.40;359.83;;;;;;;-1.99;100.00;102596.88;5123326;57;1145361;-72
2022/01/12 14:18:46;;;;;;;516.80;180.13;;;;;;;-2.00;100.00;102607.67;5124480;57;1147274;-72
2022/01/12 14:23:51;;;;;;;216.13;79.33;;;;;;;-1.98;100.00;102616.73;5124748;57;1147350;-76
2022/01/12 14:28:59;;;;;;;197.07;61.90;;;;;;;-1.98;100.00;102603.34;5124660;57;1145529;-76
2022/01/12 14:34:05;;;;;;;149.97;48.92;;;;;;;-1.97;100.00;102606.37;5121225;57;1145513;-70
2022/01/12 14:39:11;;;;;;;119.67;41.57;;;;;;;-1.98;100.00;102594.27;5113894;57;1144698;-76
2022/01/12 14:44:19;;;;;;;176.87;58.93;;;;;;;-2.00;100.00;102583.05;5124823;57;1145288;-71
2022/01/12 14:49:24;;;;;;;174.62;55.03;;;;;;;-2.02;100.00;102588.64;5122909;57;1145389;-71
2022/01/12 14:54:31;;;;;;;181.70;59.10;;;;;;;-2.02;100.00;102593.83;5113923;57;1145221;-73
2022/01/12 14:59:37;;;;;;;122.70;43.30;;;;;;;-2.04;100.00;102595.54;5124563;57;1145315;-74
2022/01/12 15:04:43;;;;;;;194.57;77.03;;;;;;;-2.04;100.00;102594.67;5117939;57;1145325;-78
2022/01/12 15:09:49;;;;;;;273.80;92.03;;;;;;;-2.03;100.00;102594.69;5094804;57;1143233;-70
2022/01/12 15:15:00;;;;;;;175.23;55.77;;;;;;;-2.04;100.00;102581.70;5020615;58;1142666;-74
2022/01/12 15:20:14;;;;;;;173.60;57.40;;;;;;;-2.09;100.00;102579.08;5014136;58;1143164;-73
2022/01/12 15:25:22;;;;;;;300.90;90.90;;;;;;;-2.09;100.00;102581.67;5009513;58;1143032;-73
2022/01/12 15:30:28;;;;;;;308.40;94.63;;;;;;;-2.08;100.00;102573.03;4989703;58;1143331;-78
2022/01/12 15:35:37;;;;;;;198.70;59.67;;;;;;;-2.04;100.00;102571.34;4994805;58;1143192;-76
2022/01/12 15:40:44;;;;;;;163.07;50.07;;;;;;;-1.99;100.00;102586.08;4997443;59;1143187;-69
2022/01/12 15:45:50;;;;;;;236.30;82.00;;;;;;;-1.99;100.00;102584.78;4989131;58;1143282;-74
2022/01/12 15:50:56;;;;;;;240.83;76.27;;;;;;;-1.99;100.00;102583.48;4989665;58;1143048;-72
2022/01/12 15:56:01;;;;;;;181.27;60.23;;;;;;;-1.97;100.00;102579.16;4990601;58;1143281;-76
2022/01/12 16:01:07;;;;;;;495.17;159.97;;;;;;;-1.96;100.00;102580.02;4990043;58;1143272;-74
2022/01/12 16:06:13;;;;;;;408.40;119.70;;;;;;;-1.96;100.00;102568.36;4991098;58;1145271;-75
2022/01/12 16:11:19;;;;;;;290.03;91.40;;;;;;;-1.98;100.00;102573.95;4944121;58;1145193;-74
2022/01/12 16:16:26;;;;;;;250.50;68.70;;;;;;;-1.98;100.00;102574.82;4912077;60;1143203;-75
2022/01/12 16:21:31;;;;;;;216.27;65.13;;;;;;;-1.99;100.00;102569.23;4921174;59;1141029;-74
2022/01/12 16:26:39;;;;;;;171.23;55.40;;;;;;;-1.99;100.00;102576.14;4934639;59;1141223;-71
2022/01/12 16:31:47;;;;;;;214.77;80.80;;;;;;;-1.97;100.00;102568.78;4985796;59;1195420;-72
2022/01/12 16:36:52;;;;;;;162.77;67.70;;;;;;;-1.98;100.00;102576.12;4941857;59;1145205;-74
2022/01/12 16:41:58;;;;;;;221.57;60.73;;;;;;;-1.94;100.00;102576.59;4992066;59;1145665;-74
2022/01/12 16:47:05;;;;;;;252.33;66.00;;;;;;;-1.93;100.00;102577.03;5004561;58;1145045;-69
2022/01/12 16:52:12;;;;;;;173.77;49.73;;;;;;;-1.89;100.00;102582.69;5000876;59;1145145;-71
2022/01/12 16:57:18;;;;;;;156.07;47.30;;;;;;;-1.88;100.00;102576.64;4995325;59;1145260;-71
2022/01/12 17:02:24;;;;;;;128.00;38.47;;;;;;;-1.85;100.00;102568.02;5004344;59;1145293;-72
2022/01/12 17:07:29;;;;;;;111.47;35.60;;;;;;;-1.83;100.00;102574.92;5004264;59;1145492;-74
2022/01/12 17:12:35;;;;;;;115.80;35.50;;;;;;;-1.81;100.00;102577.10;5072910;58;1145190;-74
2022/01/12 17:18:26;;;;;;;107.83;32.93;;;;;;;-1.78;100.00;102579.72;5076610;58;1145386;-78
2022/01/12 17:23:32;;;;;;;138.57;46.80;;;;;;;-1.74;100.00;102571.97;5074345;58;1145329;-74
2022/01/12 17:28:37;;;;;;;134.23;43.77;;;;;;;-1.72;100.00;102555.56;5044292;58;1145402;-69
2022/01/12 17:33:43;;;;;;;105.37;33.30;;;;;;;-1.66;100.00;102554.70;4957759;58;1145636;-75
2022/01/12 17:38:49;;;;;;;106.47;33.43;;;;;;;-1.63;100.00;102537.44;4957920;58;1145366;-70
2022/01/12 17:43:56;;;;;;;135.60;44.70;;;;;;;-1.58;100.00;102528.38;4926784;59;1145529;-74
2022/01/12 17:49:03;;;;;;;152.87;49.23;;;;;;;-1.54;100.00;102537.49;4927816;58;1145444;-71
2022/01/12 17:54:09;;;;;;;107.50;33.93;;;;;;;-1.52;100.00;102524.07;4918425;59;1145326;-73
2022/01/12 17:59:16;;;;;;;122.60;37.85;;;;;;;-1.49;100.00;102530.58;4890292;60;1145289;-71
2022/01/12 18:04:22;;;;;;;129.33;42.73;;;;;;;-1.46;100.00;102536.22;4890545;60;1145281;-71
2022/01/12 18:09:27;;;;;;;94.00;29.80;;;;;;;-1.40;100.00;102541.45;4907802;59;1145345;-68
2022/01/12 18:14:34;;;;;;;106.43;35.13;;;;;;;-1.37;100.00;102554.41;4966169;59;1143332;-82
2022/01/12 18:19:48;;;;;;;113.80;36.57;;;;;;;-1.32;100.00;102550.54;4955302;58;1145581;-72
2022/01/12 18:24:47;;;;;;;112.90;36.93;;;;;;;-1.29;100.00;102551.42;4928864;58;1145233;-78
2022/01/12 18:29:54;;;;;;;662.37;233.33;;;;;;;-1.26;100.00;102541.48;4890091;58;1145503;-79
2022/01/12 18:34:59;;;;;;;410.20;169.17;;;;;;;-1.22;100.00;102536.29;4888289;59;1147476;-75
2022/01/12 18:40:15;;;;;;;373.77;83.73;;;;;;;-1.17;100.00;102533.72;4948469;58;1147335;-73
2022/01/12 18:45:14;;;;;;;177.10;44.50;;;;;;;-1.14;100.00;102554.50;4967285;58;1145264;-68
2022/01/12 18:50:20;;;;;;;106.13;34.07;;;;;;;-1.11;100.00;102569.67;4918248;59;1145310;-82
2022/01/12 18:55:26;;;;;;;85.70;30.80;;;;;;;-1.07;100.00;102570.09;4890400;60;1145281;-78
2022/01/12 19:00:32;;;;;;;76.57;25.00;;;;;;;-1.01;100.00;102577.47;4958918;58;1143244;-75
2022/01/12 19:05:38;;;;;;;75.70;25.37;;;;;;;-0.97;100.00;102571.44;4890140;60;1141187;-76
2022/01/12 19:10:44;;;;;;;78.93;23.50;;;;;;;-0.92;100.00;102564.11;4914685;58;1141365;-82
2022/01/12 19:15:50;;;;;;;111.30;35.13;;;;;;;-0.90;100.00;102549.36;4966980;58;1141056;-73
2022/01/12 19:20:56;;;;;;;77.00;26.73;;;;;;;-0.88;100.00;102551.53;4953427;59;1143359;-76
2022/01/12 19:26:02;;;;;;;72.57;25.03;;;;;;;-0.85;100.00;102561.94;4922498;58;1141022;-73
2022/01/12 19:31:09;;;;;;;77.70;21.70;;;;;;;-0.81;100.00;102573.20;4926998;58;1141329;-78
2022/01/12 19:36:15;;;;;;;54.83;17.43;;;;;;;-0.79;100.00;102564.99;4911349;58;1141105;-74
2022/01/12 19:41:21;;;;;;;48.60;16.53;;;;;;;-0.72;100.00;102552.43;4869073;60;1141121;-72
2022/01/12 19:46:31;;;;;;;46.77;18.70;;;;;;;-0.69;100.00;102551.57;4884490;60;1141152;-74
2022/01/12 19:51:39;;;;;;;61.40;21.40;;;;;;;-0.65;100.00;102544.22;4890000;59;1140930;-75
2022/01/12 19:56:45;;;;;;;47.97;14.80;;;;;;;-0.64;100.00;102542.93;4803709;60;1141107;-74
2022/01/12 20:01:50;;;;;;;33.13;11.27;;;;;;;-0.61;100.00;102538.17;4828340;59;1141245;-76
2022/01/12 20:06:56;;;;;;;42.37;14.67;;;;;;;-0.64;100.00;102542.06;4869445;59;1141401;-76
2022/01/12 20:12:04;;;;;;;41.47;12.13;;;;;;;-0.68;100.00;102534.69;4808742;61;1141590;-74
2022/01/12 20:17:27;;;;;;;33.97;13.37;;;;;;;-0.62;100.00;102542.94;4880110;60;1141282;-77
2022/01/12 20:23:06;;;;;;;41.23;15.20;;;;;;;-0.61;100.00;102549.87;4959814;59;1141126;-73
2022/01/12 20:28:13;;;;;;;40.63;15.10;;;;;;;-0.61;100.00;102538.17;4959002;59;1143500;-76
2022/01/12 20:33:19;;;;;;;43.57;12.83;;;;;;;-0.62;100.00;102546.40;4971877;59;1143378;-70
2022/01/12 20:38:25;;;;;;;32.67;10.27;;;;;;;-0.63;100.00;102533.41;4939637;59;1143301;-72
2022/01/12 20:43:30;;;;;;;37.10;12.63;;;;;;;-0.62;100.00;102529.94;4945469;58;1143242;-68
2022/01/12 20:48:38;;;;;;;28.77;12.17;;;;;;;-0.62;100.00;102519.55;4972145;59;1143228;-71
2022/01/12 20:53:45;;;;;;;40.50;14.27;;;;;;;-0.62;100.00;102529.52;4948904;59;1143206;-69
2022/01/12 20:58:51;;;;;;;31.10;10.23;;;;;;;-0.60;100.00;102520.38;4933627;59;1143162;-70
2022/01/12 21:03:57;;;;;;;36.03;12.70;;;;;;;-0.63;100.00;102519.98;4923195;58;1143292;-72
2022/01/12 21:09:03;;;;;;;29.57;11.53;;;;;;;-0.65;100.00;102526.91;4922120;58;1143154;-69
2022/01/12 21:14:09;;;;;;;31.20;11.67;;;;;;;-0.65;100.00;102546.39;4930300;58;1143256;-71
2022/01/12 21:19:18;;;;;;;41.53;12.13;;;;;;;-0.63;100.00;102558.95;4862245;58;1143122;-70
2022/01/12 21:24:24;;;;;;;36.10;11.63;;;;;;;-0.64;100.00;102561.55;4930348;58;1143439;-71
2022/01/12 21:29:30;;;;;;;41.63;13.43;;;;;;;-0.62;100.00;102569.78;4930144;58;1143429;-72
2022/01/12 21:34:48;;;;;;;30.88;10.23;;;;;;;-0.64;100.00;102574.11;4921788;59;1143200;-71
2022/01/12 21:39:48;;;;;;;44.13;16.60;;;;;;;-0.63;100.00;102582.34;4894699;59;1143241;-68
2022/01/12 21:44:51;;;;;;;29.55;11.73;;;;;;;-0.62;100.00;102592.30;4891753;59;1143247;-70
2022/01/12 21:49:57;;;;;;;38.47;14.83;;;;;;;-0.60;100.00;102598.34;4908559;58;1143156;-68
2022/01/12 21:55:03;;;;;;;38.07;15.37;;;;;;;-0.60;100.00;102596.61;4955905;59;1143223;-73
2022/01/12 22:00:10;;;;;;;40.93;14.27;;;;;;;-0.59;100.00;102589.69;4962002;59;1143528;-72
2022/01/12 22:05:16;;;;;;;39.83;15.53;;;;;;;-0.57;100.00;102584.06;4926661;59;1143204;-68
2022/01/12 22:10:21;;;;;;;42.87;15.53;;;;;;;-0.56;100.00;102576.27;4940421;58;1143149;-71
2022/01/12 22:15:27;;;;;;;46.30;14.40;;;;;;;-0.54;100.00;102564.58;4810377;61;1143510;-72
2022/01/12 22:20:33;;;;;;;34.97;12.90;;;;;;;-0.53;100.00;102559.82;4810316;61;1143220;-71
2022/01/12 22:25:39;;;;;;;26.13;10.20;;;;;;;-0.53;100.00;102539.03;4817406;60;1143422;-69
2022/01/12 22:30:45;;;;;;;42.07;14.03;;;;;;;-0.54;100.00;102544.66;4803289;60;1143203;-71
2022/01/12 22:35:51;;;;;;;39.43;12.13;;;;;;;-0.53;100.00;102541.20;4801866;60;1143370;-70
2022/01/12 22:40:57;;;;;;;36.67;12.87;;;;;;;-0.50;100.00;102557.23;4869605;59;1143188;-74
2022/01/12 22:46:03;;;;;;;31.90;12.17;;;;;;;-0.52;100.00;102544.23;4892495;60;1143249;-68
2022/01/12 22:51:09;;;;;;;33.00;11.87;;;;;;;-0.51;100.00;102537.30;4892648;60;1143170;-72
2022/01/12 22:56:22;;;;;;;41.53;15.60;;;;;;;-0.50;100.00;102542.94;4892661;60;1143105;-71
2022/01/12 23:01:23;;;;;;;28.03;11.43;;;;;;;-0.46;100.00;102539.02;4892183;60;1141111;-70
2022/01/12 23:06:29;;;;;;;33.73;13.00;;;;;;;-0.46;100.00;102532.52;4892577;60;1141290;-72
2022/01/12 23:11:35;;;;;;;33.43;10.43;;;;;;;-0.45;100.00;102517.79;4919420;59;1141289;-70
2022/01/12 23:16:42;;;;;;;30.13;11.63;;;;;;;-0.46;100.00;102501.33;4914454;59;1141075;-71
2022/01/12 23:21:48;;;;;;;31.87;9.13;;;;;;;-0.44;100.00;102489.20;4948334;59;1141118;-71
2022/01/12 23:26:56;;;;;;;34.97;11.60;;;;;;;-0.43;100.00;102475.77;4966338;59;1139009;-68